Western Bay, Canada
Current Conditions -  °F | °C
As of 3:24 PM on Saturday 25 Oct 2014 (Local Time) from CYYT Reporting Station
Rain Showers Rain Showers  
Wind Chill: 43°   Ceiling: 200
Heat Index: 48°   Visibility: 0.5mi
Dew Point: 48°   Wind: 13mph
Humidity: 100%   Direction: 50°NE
Pressure: 29.36"   Gusts: NA
Location:  47.9°N, 53.08°W
Report Text: CYYT 251724Z 05011KT 1/2SM R11/3000V5000FT/D -SHRA FG VV002 09/09 A2936 RMK FG8 SLP944
Loading
Personal Weather Stations






























Interactive Weather Map
Tropical Storm Tracking
New forecast layout! Learn more

10-Day Weather Forecast

Advertisements
Track Severe Weather on mobile